sensor_id;sensor_type;location;lat;lon;timestamp;P1;durP1;ratioP1;P2;durP2;ratioP2
39128;SDS011;24864;49.940;19.770;2023-03-23T00:01:27;15.45;;;9.77;;
39128;SDS011;24864;49.940;19.770;2023-03-23T00:03:58;18.05;;;9.57;;
39128;SDS011;24864;49.940;19.770;2023-03-23T00:06:26;16.75;;;10.25;;
39128;SDS011;24864;49.940;19.770;2023-03-23T00:08:58;17.77;;;10.18;;
39128;SDS011;24864;49.940;19.770;2023-03-23T00:11:27;16.80;;;10.13;;
39128;SDS011;24864;49.940;19.770;2023-03-23T00:13:56;17.60;;;10.15;;
39128;SDS011;24864;49.940;19.770;2023-03-23T00:16:27;13.77;;;9.40;;
39128;SDS011;24864;49.940;19.770;2023-03-23T00:18:56;12.70;;;9.13;;
39128;SDS011;24864;49.940;19.770;2023-03-23T00:21:26;14.15;;;9.60;;
39128;SDS011;24864;49.940;19.770;2023-03-23T00:24:01;14.55;;;9.30;;
39128;SDS011;24864;49.940;19.770;2023-03-23T00:26:28;17.30;;;10.45;;
39128;SDS011;24864;49.940;19.770;2023-03-23T00:28:59;13.18;;;10.35;;
39128;SDS011;24864;49.940;19.770;2023-03-23T00:31:27;14.75;;;10.70;;
39128;SDS011;24864;49.940;19.770;2023-03-23T00:33:58;11.93;;;9.57;;
39128;SDS011;24864;49.940;19.770;2023-03-23T00:36:29;16.13;;;10.30;;
39128;SDS011;24864;49.940;19.770;2023-03-23T00:38:56;14.27;;;9.18;;
39128;SDS011;24864;49.940;19.770;2023-03-23T00:41:25;12.82;;;9.32;;
39128;SDS011;24864;49.940;19.770;2023-03-23T00:43:54;11.77;;;9.10;;
39128;SDS011;24864;49.940;19.770;2023-03-23T00:46:21;11.95;;;9.27;;
39128;SDS011;24864;49.940;19.770;2023-03-23T00:48:49;14.00;;;9.35;;
39128;SDS011;24864;49.940;19.770;2023-03-23T00:51:18;12.25;;;9.15;;
39128;SDS011;24864;49.940;19.770;2023-03-23T00:53:45;16.02;;;8.95;;
39128;SDS011;24864;49.940;19.770;2023-03-23T00:56:13;13.38;;;8.55;;
39128;SDS011;24864;49.940;19.770;2023-03-23T00:58:41;11.30;;;8.38;;
39128;SDS011;24864;49.940;19.770;2023-03-23T01:01:08;9.07;;;7.38;;
39128;SDS011;24864;49.940;19.770;2023-03-23T01:03:35;11.25;;;7.80;;
39128;SDS011;24864;49.940;19.770;2023-03-23T01:06:06;9.82;;;7.03;;
39128;SDS011;24864;49.940;19.770;2023-03-23T01:08:39;10.40;;;7.53;;
39128;SDS011;24864;49.940;19.770;2023-03-23T01:11:11;8.55;;;6.40;;
39128;SDS011;24864;49.940;19.770;2023-03-23T01:13:40;8.43;;;6.28;;
39128;SDS011;24864;49.940;19.770;2023-03-23T01:16:07;8.07;;;6.10;;
39128;SDS011;24864;49.940;19.770;2023-03-23T01:18:35;9.65;;;5.93;;
39128;SDS011;24864;49.940;19.770;2023-03-23T01:21:05;8.18;;;5.82;;
39128;SDS011;24864;49.940;19.770;2023-03-23T01:23:33;8.73;;;5.53;;
39128;SDS011;24864;49.940;19.770;2023-03-23T01:26:05;9.20;;;6.43;;
39128;SDS011;24864;49.940;19.770;2023-03-23T01:28:33;10.93;;;6.15;;
39128;SDS011;24864;49.940;19.770;2023-03-23T01:31:02;7.10;;;5.82;;
39128;SDS011;24864;49.940;19.770;2023-03-23T01:33:29;8.82;;;5.43;;
39128;SDS011;24864;49.940;19.770;2023-03-23T01:35:56;8.82;;;5.90;;
39128;SDS011;24864;49.940;19.770;2023-03-23T01:38:24;8.25;;;5.55;;
39128;SDS011;24864;49.940;19.770;2023-03-23T01:40:51;6.90;;;5.13;;
39128;SDS011;24864;49.940;19.770;2023-03-23T01:43:19;9.02;;;5.47;;
39128;SDS011;24864;49.940;19.770;2023-03-23T01:45:46;6.13;;;5.22;;
39128;SDS011;24864;49.940;19.770;2023-03-23T01:48:15;10.48;;;5.70;;
39128;SDS011;24864;49.940;19.770;2023-03-23T01:50:45;6.68;;;5.03;;
39128;SDS011;24864;49.940;19.770;2023-03-23T01:53:16;9.68;;;5.43;;
39128;SDS011;24864;49.940;19.770;2023-03-23T01:55:44;9.65;;;4.97;;
39128;SDS011;24864;49.940;19.770;2023-03-23T01:58:13;6.20;;;4.38;;
39128;SDS011;24864;49.940;19.770;2023-03-23T02:00:43;6.72;;;4.25;;
39128;SDS011;24864;49.940;19.770;2023-03-23T02:03:10;6.70;;;4.60;;
39128;SDS011;24864;49.940;19.770;2023-03-23T02:05:41;6.82;;;4.50;;
39128;SDS011;24864;49.940;19.770;2023-03-23T02:08:10;7.28;;;4.70;;
39128;SDS011;24864;49.940;19.770;2023-03-23T02:10:38;6.13;;;5.18;;
39128;SDS011;24864;49.940;19.770;2023-03-23T02:13:06;6.65;;;5.18;;
39128;SDS011;24864;49.940;19.770;2023-03-23T02:15:36;5.85;;;4.53;;
39128;SDS011;24864;49.940;19.770;2023-03-23T02:18:20;5.20;;;4.57;;
39128;SDS011;24864;49.940;19.770;2023-03-23T02:21:14;6.53;;;5.00;;
39128;SDS011;24864;49.940;19.770;2023-03-23T02:23:52;5.45;;;4.75;;
39128;SDS011;24864;49.940;19.770;2023-03-23T02:26:46;7.03;;;4.38;;
39128;SDS011;24864;49.940;19.770;2023-03-23T02:29:25;5.13;;;4.00;;
39128;SDS011;24864;49.940;19.770;2023-03-23T02:32:07;5.90;;;4.25;;
39128;SDS011;24864;49.940;19.770;2023-03-23T02:34:41;7.28;;;4.65;;
39128;SDS011;24864;49.940;19.770;2023-03-23T02:37:10;6.63;;;5.25;;
39128;SDS011;24864;49.940;19.770;2023-03-23T02:39:40;8.38;;;4.72;;
39128;SDS011;24864;49.940;19.770;2023-03-23T02:42:10;6.03;;;4.72;;
39128;SDS011;24864;49.940;19.770;2023-03-23T02:44:40;7.40;;;4.75;;
39128;SDS011;24864;49.940;19.770;2023-03-23T02:47:11;7.28;;;5.78;;
39128;SDS011;24864;49.940;19.770;2023-03-23T02:49:40;6.57;;;4.85;;
39128;SDS011;24864;49.940;19.770;2023-03-23T02:52:10;6.15;;;5.20;;
39128;SDS011;24864;49.940;19.770;2023-03-23T02:57:08;6.72;;;5.70;;
39128;SDS011;24864;49.940;19.770;2023-03-23T02:59:36;6.72;;;5.10;;
39128;SDS011;24864;49.940;19.770;2023-03-23T03:02:04;6.45;;;4.82;;
39128;SDS011;24864;49.940;19.770;2023-03-23T03:04:32;6.35;;;4.80;;
39128;SDS011;24864;49.940;19.770;2023-03-23T03:07:10;7.15;;;4.40;;
39128;SDS011;24864;49.940;19.770;2023-03-23T03:09:58;7.40;;;4.30;;
39128;SDS011;24864;49.940;19.770;2023-03-23T03:12:30;6.93;;;4.70;;
39128;SDS011;24864;49.940;19.770;2023-03-23T03:15:06;12.13;;;4.97;;
39128;SDS011;24864;49.940;19.770;2023-03-23T03:17:39;6.07;;;4.63;;
39128;SDS011;24864;49.940;19.770;2023-03-23T03:20:09;9.77;;;5.10;;
39128;SDS011;24864;49.940;19.770;2023-03-23T03:22:40;7.63;;;5.35;;
39128;SDS011;24864;49.940;19.770;2023-03-23T03:25:08;11.07;;;5.10;;
39128;SDS011;24864;49.940;19.770;2023-03-23T03:27:38;7.05;;;4.70;;
39128;SDS011;24864;49.940;19.770;2023-03-23T03:30:07;8.90;;;4.90;;
39128;SDS011;24864;49.940;19.770;2023-03-23T03:32:38;11.05;;;5.50;;
39128;SDS011;24864;49.940;19.770;2023-03-23T03:35:08;13.15;;;5.75;;
39128;SDS011;24864;49.940;19.770;2023-03-23T03:37:36;10.95;;;5.28;;
39128;SDS011;24864;49.940;19.770;2023-03-23T03:40:08;9.25;;;5.57;;
39128;SDS011;24864;49.940;19.770;2023-03-23T03:42:37;6.88;;;5.43;;
39128;SDS011;24864;49.940;19.770;2023-03-23T03:45:05;7.85;;;5.43;;
39128;SDS011;24864;49.940;19.770;2023-03-23T03:47:34;8.30;;;5.28;;
39128;SDS011;24864;49.940;19.770;2023-03-23T03:50:01;8.65;;;4.93;;
39128;SDS011;24864;49.940;19.770;2023-03-23T03:52:28;8.35;;;5.18;;
39128;SDS011;24864;49.940;19.770;2023-03-23T03:54:55;8.05;;;4.80;;
39128;SDS011;24864;49.940;19.770;2023-03-23T03:57:24;7.75;;;4.68;;
39128;SDS011;24864;49.940;19.770;2023-03-23T03:59:51;11.35;;;4.20;;
39128;SDS011;24864;49.940;19.770;2023-03-23T04:02:18;9.20;;;4.88;;
39128;SDS011;24864;49.940;19.770;2023-03-23T04:04:46;7.10;;;4.55;;
39128;SDS011;24864;49.940;19.770;2023-03-23T04:07:13;6.53;;;4.13;;
39128;SDS011;24864;49.940;19.770;2023-03-23T04:09:41;8.05;;;4.80;;
39128;SDS011;24864;49.940;19.770;2023-03-23T04:12:11;9.75;;;4.80;;
39128;SDS011;24864;49.940;19.770;2023-03-23T04:14:40;11.63;;;5.78;;
39128;SDS011;24864;49.940;19.770;2023-03-23T04:17:06;5.95;;;4.47;;
39128;SDS011;24864;49.940;19.770;2023-03-23T04:19:34;10.10;;;5.20;;
39128;SDS011;24864;49.940;19.770;2023-03-23T04:22:02;7.10;;;4.90;;
39128;SDS011;24864;49.940;19.770;2023-03-23T04:24:29;6.70;;;5.07;;
39128;SDS011;24864;49.940;19.770;2023-03-23T04:26:58;10.52;;;5.18;;
39128;SDS011;24864;49.940;19.770;2023-03-23T04:29:26;6.95;;;4.72;;
39128;SDS011;24864;49.940;19.770;2023-03-23T04:31:54;7.78;;;4.65;;
39128;SDS011;24864;49.940;19.770;2023-03-23T04:34:22;8.40;;;4.28;;
39128;SDS011;24864;49.940;19.770;2023-03-23T04:36:50;8.90;;;4.65;;
39128;SDS011;24864;49.940;19.770;2023-03-23T04:39:18;6.88;;;4.40;;
39128;SDS011;24864;49.940;19.770;2023-03-23T04:41:45;8.13;;;4.72;;
39128;SDS011;24864;49.940;19.770;2023-03-23T04:44:13;5.63;;;4.35;;
39128;SDS011;24864;49.940;19.770;2023-03-23T04:46:43;7.45;;;4.70;;
39128;SDS011;24864;49.940;19.770;2023-03-23T04:51:47;6.75;;;4.70;;
39128;SDS011;24864;49.940;19.770;2023-03-23T04:54:16;5.28;;;4.40;;
39128;SDS011;24864;49.940;19.770;2023-03-23T04:56:43;9.80;;;4.20;;
39128;SDS011;24864;49.940;19.770;2023-03-23T04:59:10;6.85;;;4.40;;
39128;SDS011;24864;49.940;19.770;2023-03-23T05:01:39;5.30;;;4.05;;
39128;SDS011;24864;49.940;19.770;2023-03-23T05:04:10;7.45;;;4.38;;
39128;SDS011;24864;49.940;19.770;2023-03-23T05:06:39;7.07;;;4.03;;
39128;SDS011;24864;49.940;19.770;2023-03-23T05:09:10;8.25;;;4.47;;
39128;SDS011;24864;49.940;19.770;2023-03-23T05:11:38;4.32;;;3.67;;
39128;SDS011;24864;49.940;19.770;2023-03-23T05:14:05;7.22;;;4.15;;
39128;SDS011;24864;49.940;19.770;2023-03-23T05:16:32;5.32;;;4.22;;
39128;SDS011;24864;49.940;19.770;2023-03-23T05:19:02;5.70;;;4.75;;
39128;SDS011;24864;49.940;19.770;2023-03-23T05:21:29;5.80;;;4.38;;
39128;SDS011;24864;49.940;19.770;2023-03-23T05:23:58;7.63;;;4.78;;
39128;SDS011;24864;49.940;19.770;2023-03-23T05:26:26;7.32;;;3.78;;
39128;SDS011;24864;49.940;19.770;2023-03-23T05:28:54;4.65;;;3.95;;
39128;SDS011;24864;49.940;19.770;2023-03-23T05:31:21;6.70;;;4.80;;
39128;SDS011;24864;49.940;19.770;2023-03-23T05:33:49;6.43;;;4.47;;
39128;SDS011;24864;49.940;19.770;2023-03-23T05:36:17;8.40;;;4.28;;
39128;SDS011;24864;49.940;19.770;2023-03-23T05:38:44;7.20;;;4.60;;
39128;SDS011;24864;49.940;19.770;2023-03-23T05:41:14;4.97;;;4.47;;
39128;SDS011;24864;49.940;19.770;2023-03-23T05:43:42;5.45;;;4.70;;
39128;SDS011;24864;49.940;19.770;2023-03-23T05:46:09;8.35;;;4.78;;
39128;SDS011;24864;49.940;19.770;2023-03-23T05:48:36;5.18;;;4.10;;
39128;SDS011;24864;49.940;19.770;2023-03-23T05:51:03;6.50;;;4.70;;
39128;SDS011;24864;49.940;19.770;2023-03-23T05:53:31;6.07;;;4.32;;
39128;SDS011;24864;49.940;19.770;2023-03-23T05:55:59;5.85;;;4.30;;
39128;SDS011;24864;49.940;19.770;2023-03-23T05:58:27;6.35;;;4.57;;
39128;SDS011;24864;49.940;19.770;2023-03-23T06:00:54;5.38;;;4.43;;
39128;SDS011;24864;49.940;19.770;2023-03-23T06:03:22;8.02;;;4.80;;
39128;SDS011;24864;49.940;19.770;2023-03-23T06:05:49;8.30;;;4.70;;
39128;SDS011;24864;49.940;19.770;2023-03-23T06:08:17;5.22;;;4.47;;
39128;SDS011;24864;49.940;19.770;2023-03-23T06:10:44;8.77;;;4.65;;
39128;SDS011;24864;49.940;19.770;2023-03-23T06:13:12;5.82;;;4.07;;
39128;SDS011;24864;49.940;19.770;2023-03-23T06:15:40;5.22;;;4.40;;
39128;SDS011;24864;49.940;19.770;2023-03-23T06:18:08;10.02;;;4.50;;
39128;SDS011;24864;49.940;19.770;2023-03-23T06:20:35;5.38;;;4.32;;
39128;SDS011;24864;49.940;19.770;2023-03-23T06:23:02;6.20;;;3.85;;
39128;SDS011;24864;49.940;19.770;2023-03-23T06:25:29;6.85;;;4.53;;
39128;SDS011;24864;49.940;19.770;2023-03-23T06:27:57;6.68;;;4.43;;
39128;SDS011;24864;49.940;19.770;2023-03-23T06:30:24;7.18;;;4.47;;
39128;SDS011;24864;49.940;19.770;2023-03-23T06:32:53;5.35;;;4.15;;
39128;SDS011;24864;49.940;19.770;2023-03-23T06:35:21;4.90;;;3.95;;
39128;SDS011;24864;49.940;19.770;2023-03-23T06:37:48;3.90;;;3.38;;
39128;SDS011;24864;49.940;19.770;2023-03-23T06:40:17;5.95;;;4.20;;
39128;SDS011;24864;49.940;19.770;2023-03-23T06:42:45;4.53;;;3.72;;
39128;SDS011;24864;49.940;19.770;2023-03-23T06:45:12;6.68;;;3.90;;
39128;SDS011;24864;49.940;19.770;2023-03-23T06:47:39;6.40;;;4.25;;
39128;SDS011;24864;49.940;19.770;2023-03-23T06:50:08;5.53;;;4.25;;
39128;SDS011;24864;49.940;19.770;2023-03-23T06:52:36;5.40;;;4.30;;
39128;SDS011;24864;49.940;19.770;2023-03-23T06:55:03;4.20;;;3.75;;
39128;SDS011;24864;49.940;19.770;2023-03-23T06:57:31;5.07;;;3.90;;
39128;SDS011;24864;49.940;19.770;2023-03-23T06:59:58;6.85;;;4.20;;
39128;SDS011;24864;49.940;19.770;2023-03-23T07:02:25;4.60;;;3.60;;
39128;SDS011;24864;49.940;19.770;2023-03-23T07:04:52;6.32;;;4.15;;
39128;SDS011;24864;49.940;19.770;2023-03-23T07:07:21;5.80;;;4.25;;
39128;SDS011;24864;49.940;19.770;2023-03-23T07:09:48;7.25;;;3.63;;
39128;SDS011;24864;49.940;19.770;2023-03-23T07:12:15;5.00;;;3.30;;
39128;SDS011;24864;49.940;19.770;2023-03-23T07:14:42;4.28;;;2.95;;
39128;SDS011;24864;49.940;19.770;2023-03-23T07:17:10;5.80;;;3.60;;
39128;SDS011;24864;49.940;19.770;2023-03-23T07:19:37;4.20;;;3.70;;
39128;SDS011;24864;49.940;19.770;2023-03-23T07:22:04;6.70;;;4.05;;
39128;SDS011;24864;49.940;19.770;2023-03-23T07:24:33;7.05;;;3.53;;
39128;SDS011;24864;49.940;19.770;2023-03-23T07:27:00;9.05;;;4.70;;
39128;SDS011;24864;49.940;19.770;2023-03-23T07:29:28;5.35;;;3.72;;
39128;SDS011;24864;49.940;19.770;2023-03-23T07:31:55;7.18;;;3.47;;
39128;SDS011;24864;49.940;19.770;2023-03-23T07:34:22;4.22;;;3.30;;
39128;SDS011;24864;49.940;19.770;2023-03-23T07:36:49;8.75;;;4.15;;
39128;SDS011;24864;49.940;19.770;2023-03-23T07:39:17;6.13;;;3.85;;
39128;SDS011;24864;49.940;19.770;2023-03-23T07:41:45;6.15;;;4.18;;
39128;SDS011;24864;49.940;19.770;2023-03-23T07:44:12;4.75;;;3.53;;
39128;SDS011;24864;49.940;19.770;2023-03-23T07:46:39;4.75;;;3.60;;
39128;SDS011;24864;49.940;19.770;2023-03-23T07:49:07;5.55;;;3.30;;
39128;SDS011;24864;49.940;19.770;2023-03-23T07:51:34;5.47;;;3.33;;
39128;SDS011;24864;49.940;19.770;2023-03-23T07:54:03;5.80;;;3.20;;
39128;SDS011;24864;49.940;19.770;2023-03-23T07:56:33;5.78;;;3.65;;
39128;SDS011;24864;49.940;19.770;2023-03-23T07:59:01;7.40;;;3.65;;
39128;SDS011;24864;49.940;19.770;2023-03-23T08:01:30;6.00;;;2.85;;
39128;SDS011;24864;49.940;19.770;2023-03-23T08:03:57;5.72;;;3.67;;
39128;SDS011;24864;49.940;19.770;2023-03-23T08:06:25;6.35;;;3.60;;
39128;SDS011;24864;49.940;19.770;2023-03-23T08:08:52;4.30;;;3.03;;
39128;SDS011;24864;49.940;19.770;2023-03-23T08:11:19;5.03;;;3.58;;
39128;SDS011;24864;49.940;19.770;2023-03-23T08:13:47;5.45;;;2.97;;
39128;SDS011;24864;49.940;19.770;2023-03-23T08:16:16;4.80;;;3.15;;
39128;SDS011;24864;49.940;19.770;2023-03-23T08:18:44;3.30;;;3.00;;
39128;SDS011;24864;49.940;19.770;2023-03-23T08:21:11;3.53;;;3.08;;
39128;SDS011;24864;49.940;19.770;2023-03-23T08:23:38;6.60;;;3.38;;
39128;SDS011;24864;49.940;19.770;2023-03-23T08:26:06;4.68;;;3.05;;
39128;SDS011;24864;49.940;19.770;2023-03-23T08:28:34;6.25;;;2.85;;
39128;SDS011;24864;49.940;19.770;2023-03-23T08:31:05;6.60;;;3.80;;
39128;SDS011;24864;49.940;19.770;2023-03-23T08:33:34;7.30;;;2.92;;
39128;SDS011;24864;49.940;19.770;2023-03-23T08:36:02;5.63;;;3.38;;
39128;SDS011;24864;49.940;19.770;2023-03-23T08:38:29;5.65;;;3.13;;
39128;SDS011;24864;49.940;19.770;2023-03-23T08:40:58;5.68;;;3.10;;
39128;SDS011;24864;49.940;19.770;2023-03-23T08:43:25;3.47;;;3.00;;
39128;SDS011;24864;49.940;19.770;2023-03-23T08:45:52;3.30;;;2.70;;
39128;SDS011;24864;49.940;19.770;2023-03-23T08:48:19;7.97;;;3.33;;
39128;SDS011;24864;49.940;19.770;2023-03-23T08:50:49;4.63;;;2.85;;
39128;SDS011;24864;49.940;19.770;2023-03-23T08:53:17;4.43;;;3.00;;
39128;SDS011;24864;49.940;19.770;2023-03-23T08:55:46;3.30;;;2.88;;
39128;SDS011;24864;49.940;19.770;2023-03-23T08:58:13;6.45;;;3.03;;
39128;SDS011;24864;49.940;19.770;2023-03-23T09:00:40;6.75;;;3.67;;
39128;SDS011;24864;49.940;19.770;2023-03-23T09:03:07;3.97;;;2.97;;
39128;SDS011;24864;49.940;19.770;2023-03-23T09:05:34;4.38;;;3.55;;
39128;SDS011;24864;49.940;19.770;2023-03-23T09:08:05;4.45;;;3.17;;
39128;SDS011;24864;49.940;19.770;2023-03-23T09:10:34;4.20;;;3.33;;
39128;SDS011;24864;49.940;19.770;2023-03-23T09:13:01;4.50;;;2.92;;
39128;SDS011;24864;49.940;19.770;2023-03-23T09:15:28;4.78;;;3.20;;
39128;SDS011;24864;49.940;19.770;2023-03-23T09:17:55;4.70;;;3.17;;
39128;SDS011;24864;49.940;19.770;2023-03-23T09:20:24;4.00;;;3.10;;
39128;SDS011;24864;49.940;19.770;2023-03-23T09:22:52;4.30;;;3.30;;
39128;SDS011;24864;49.940;19.770;2023-03-23T09:25:22;5.53;;;3.10;;
39128;SDS011;24864;49.940;19.770;2023-03-23T09:27:52;8.43;;;3.45;;
39128;SDS011;24864;49.940;19.770;2023-03-23T09:30:22;4.35;;;3.05;;
39128;SDS011;24864;49.940;19.770;2023-03-23T09:32:50;5.88;;;3.20;;
39128;SDS011;24864;49.940;19.770;2023-03-23T09:35:17;5.45;;;2.90;;
39128;SDS011;24864;49.940;19.770;2023-03-23T09:37:46;4.68;;;3.40;;
39128;SDS011;24864;49.940;19.770;2023-03-23T09:40:16;4.47;;;2.97;;
39128;SDS011;24864;49.940;19.770;2023-03-23T09:42:50;4.63;;;2.78;;
39128;SDS011;24864;49.940;19.770;2023-03-23T09:45:26;4.88;;;3.00;;
39128;SDS011;24864;49.940;19.770;2023-03-23T09:48:03;5.35;;;3.08;;
39128;SDS011;24864;49.940;19.770;2023-03-23T09:50:35;8.10;;;3.35;;
39128;SDS011;24864;49.940;19.770;2023-03-23T09:53:05;5.07;;;3.00;;
39128;SDS011;24864;49.940;19.770;2023-03-23T09:58:09;5.35;;;3.13;;
39128;SDS011;24864;49.940;19.770;2023-03-23T10:00:39;4.93;;;3.03;;
39128;SDS011;24864;49.940;19.770;2023-03-23T10:03:10;5.72;;;2.65;;
39128;SDS011;24864;49.940;19.770;2023-03-23T10:05:41;3.30;;;2.60;;
39128;SDS011;24864;49.940;19.770;2023-03-23T10:08:11;3.92;;;2.92;;
39128;SDS011;24864;49.940;19.770;2023-03-23T10:10:44;4.70;;;2.75;;
39128;SDS011;24864;49.940;19.770;2023-03-23T10:13:17;4.47;;;2.80;;
39128;SDS011;24864;49.940;19.770;2023-03-23T10:15:50;6.10;;;2.50;;
39128;SDS011;24864;49.940;19.770;2023-03-23T10:18:17;5.78;;;2.78;;
39128;SDS011;24864;49.940;19.770;2023-03-23T10:20:48;5.47;;;2.70;;
39128;SDS011;24864;49.940;19.770;2023-03-23T10:26:10;3.00;;;2.00;;
39128;SDS011;24864;49.940;19.770;2023-03-23T10:28:45;5.93;;;3.00;;
39128;SDS011;24864;49.940;19.770;2023-03-23T10:31:15;5.18;;;2.80;;
39128;SDS011;24864;49.940;19.770;2023-03-23T10:33:45;5.70;;;2.50;;
39128;SDS011;24864;49.940;19.770;2023-03-23T10:36:15;4.53;;;2.25;;
39128;SDS011;24864;49.940;19.770;2023-03-23T10:38:45;3.58;;;2.35;;
39128;SDS011;24864;49.940;19.770;2023-03-23T10:41:16;3.37;;;2.33;;
39128;SDS011;24864;49.940;19.770;2023-03-23T10:43:46;4.88;;;2.30;;
39128;SDS011;24864;49.940;19.770;2023-03-23T10:46:26;4.10;;;2.13;;
39128;SDS011;24864;49.940;19.770;2023-03-23T10:48:56;5.47;;;2.15;;
39128;SDS011;24864;49.940;19.770;2023-03-23T10:51:28;5.53;;;2.40;;
39128;SDS011;24864;49.940;19.770;2023-03-23T10:53:59;4.85;;;2.33;;
39128;SDS011;24864;49.940;19.770;2023-03-23T10:56:29;6.65;;;2.10;;
39128;SDS011;24864;49.940;19.770;2023-03-23T10:59:12;3.72;;;2.40;;
39128;SDS011;24864;49.940;19.770;2023-03-23T11:01:44;3.25;;;2.03;;
39128;SDS011;24864;49.940;19.770;2023-03-23T11:04:13;2.63;;;2.13;;
39128;SDS011;24864;49.940;19.770;2023-03-23T11:06:43;5.45;;;3.08;;
39128;SDS011;24864;49.940;19.770;2023-03-23T11:09:12;6.13;;;2.83;;
39128;SDS011;24864;49.940;19.770;2023-03-23T11:11:41;4.88;;;2.15;;
39128;SDS011;24864;49.940;19.770;2023-03-23T11:14:14;4.03;;;2.10;;
39128;SDS011;24864;49.940;19.770;2023-03-23T11:16:45;3.10;;;2.35;;
39128;SDS011;24864;49.940;19.770;2023-03-23T11:19:24;3.20;;;2.50;;
39128;SDS011;24864;49.940;19.770;2023-03-23T11:21:52;3.05;;;2.22;;
39128;SDS011;24864;49.940;19.770;2023-03-23T11:24:34;4.03;;;2.78;;
39128;SDS011;24864;49.940;19.770;2023-03-23T11:27:02;2.85;;;2.13;;
39128;SDS011;24864;49.940;19.770;2023-03-23T11:29:33;3.78;;;2.78;;
39128;SDS011;24864;49.940;19.770;2023-03-23T11:32:03;14.25;;;10.45;;
39128;SDS011;24864;49.940;19.770;2023-03-23T11:34:33;10.07;;;7.72;;
39128;SDS011;24864;49.940;19.770;2023-03-23T11:37:02;4.45;;;3.42;;
39128;SDS011;24864;49.940;19.770;2023-03-23T11:39:32;3.95;;;2.08;;
39128;SDS011;24864;49.940;19.770;2023-03-23T11:42:01;4.82;;;2.55;;
39128;SDS011;24864;49.940;19.770;2023-03-23T11:44:42;3.97;;;3.28;;
39128;SDS011;24864;49.940;19.770;2023-03-23T11:49:41;6.57;;;3.10;;
39128;SDS011;24864;49.940;19.770;2023-03-23T11:52:13;4.15;;;2.45;;
39128;SDS011;24864;49.940;19.770;2023-03-23T11:54:46;3.90;;;2.50;;
39128;SDS011;24864;49.940;19.770;2023-03-23T11:57:17;6.80;;;4.85;;
39128;SDS011;24864;49.940;19.770;2023-03-23T11:59:47;8.38;;;5.95;;
39128;SDS011;24864;49.940;19.770;2023-03-23T12:02:24;4.60;;;3.10;;
39128;SDS011;24864;49.940;19.770;2023-03-23T12:07:56;5.27;;;2.23;;
39128;SDS011;24864;49.940;19.770;2023-03-23T12:10:30;4.57;;;2.97;;
39128;SDS011;24864;49.940;19.770;2023-03-23T12:13:05;4.55;;;2.65;;
39128;SDS011;24864;49.940;19.770;2023-03-23T12:15:43;4.25;;;2.58;;
39128;SDS011;24864;49.940;19.770;2023-03-23T12:18:17;4.95;;;2.83;;
39128;SDS011;24864;49.940;19.770;2023-03-23T12:20:56;6.47;;;3.83;;
39128;SDS011;24864;49.940;19.770;2023-03-23T12:23:28;3.20;;;2.30;;
39128;SDS011;24864;49.940;19.770;2023-03-23T12:26:07;4.00;;;2.35;;
39128;SDS011;24864;49.940;19.770;2023-03-23T12:31:46;3.70;;;2.83;;
39128;SDS011;24864;49.940;19.770;2023-03-23T12:34:20;6.03;;;3.50;;
39128;SDS011;24864;49.940;19.770;2023-03-23T12:36:58;4.07;;;2.65;;
39128;SDS011;24864;49.940;19.770;2023-03-23T12:39:36;4.05;;;2.90;;
39128;SDS011;24864;49.940;19.770;2023-03-23T12:42:14;9.40;;;7.18;;
39128;SDS011;24864;49.940;19.770;2023-03-23T12:44:45;3.80;;;2.63;;
39128;SDS011;24864;49.940;19.770;2023-03-23T12:47:30;4.10;;;2.50;;
39128;SDS011;24864;49.940;19.770;2023-03-23T12:50:03;4.90;;;2.47;;
39128;SDS011;24864;49.940;19.770;2023-03-23T12:52:37;7.38;;;3.10;;
39128;SDS011;24864;49.940;19.770;2023-03-23T12:55:11;3.30;;;2.47;;
39128;SDS011;24864;49.940;19.770;2023-03-23T12:57:43;6.07;;;2.83;;
39128;SDS011;24864;49.940;19.770;2023-03-23T13:00:14;7.60;;;2.45;;
39128;SDS011;24864;49.940;19.770;2023-03-23T13:02:47;4.47;;;2.60;;
39128;SDS011;24864;49.940;19.770;2023-03-23T13:05:26;4.88;;;3.15;;
39128;SDS011;24864;49.940;19.770;2023-03-23T13:07:56;3.30;;;2.70;;
39128;SDS011;24864;49.940;19.770;2023-03-23T13:10:28;4.00;;;2.67;;
39128;SDS011;24864;49.940;19.770;2023-03-23T13:12:58;3.38;;;2.53;;
39128;SDS011;24864;49.940;19.770;2023-03-23T13:15:29;3.65;;;2.25;;
39128;SDS011;24864;49.940;19.770;2023-03-23T13:18:02;4.38;;;2.72;;
39128;SDS011;24864;49.940;19.770;2023-03-23T13:20:36;3.35;;;2.65;;
39128;SDS011;24864;49.940;19.770;2023-03-23T13:23:09;10.68;;;3.50;;
39128;SDS011;24864;49.940;19.770;2023-03-23T13:28:25;4.68;;;2.40;;
39128;SDS011;24864;49.940;19.770;2023-03-23T13:31:00;7.60;;;2.80;;
39128;SDS011;24864;49.940;19.770;2023-03-23T13:33:32;4.10;;;2.30;;
39128;SDS011;24864;49.940;19.770;2023-03-23T13:36:02;6.43;;;3.10;;
39128;SDS011;24864;49.940;19.770;2023-03-23T13:38:34;4.15;;;2.60;;
39128;SDS011;24864;49.940;19.770;2023-03-23T13:41:06;3.20;;;2.28;;
39128;SDS011;24864;49.940;19.770;2023-03-23T13:43:35;4.75;;;3.00;;
39128;SDS011;24864;49.940;19.770;2023-03-23T13:46:08;6.65;;;2.88;;
39128;SDS011;24864;49.940;19.770;2023-03-23T13:48:42;13.20;;;8.88;;
39128;SDS011;24864;49.940;19.770;2023-03-23T13:51:32;23.35;;;15.77;;
39128;SDS011;24864;49.940;19.770;2023-03-23T13:54:14;21.42;;;14.98;;
39128;SDS011;24864;49.940;19.770;2023-03-23T13:56:53;6.75;;;4.55;;
39128;SDS011;24864;49.940;19.770;2023-03-23T13:59:31;8.13;;;3.40;;
39128;SDS011;24864;49.940;19.770;2023-03-23T14:05:10;6.70;;;2.58;;
39128;SDS011;24864;49.940;19.770;2023-03-23T14:07:52;4.18;;;2.28;;
39128;SDS011;24864;49.940;19.770;2023-03-23T14:10:20;4.65;;;2.40;;
39128;SDS011;24864;49.940;19.770;2023-03-23T14:12:49;6.57;;;2.83;;
39128;SDS011;24864;49.940;19.770;2023-03-23T14:15:18;5.05;;;2.85;;
39128;SDS011;24864;49.940;19.770;2023-03-23T14:17:45;6.40;;;2.80;;
39128;SDS011;24864;49.940;19.770;2023-03-23T14:20:20;6.13;;;3.58;;
39128;SDS011;24864;49.940;19.770;2023-03-23T14:22:53;5.25;;;3.55;;
39128;SDS011;24864;49.940;19.770;2023-03-23T14:25:21;7.47;;;2.88;;
39128;SDS011;24864;49.940;19.770;2023-03-23T14:27:51;7.65;;;3.05;;
39128;SDS011;24864;49.940;19.770;2023-03-23T14:30:19;3.80;;;2.33;;
39128;SDS011;24864;49.940;19.770;2023-03-23T14:32:47;6.90;;;3.72;;
39128;SDS011;24864;49.940;19.770;2023-03-23T14:35:17;7.28;;;3.80;;
39128;SDS011;24864;49.940;19.770;2023-03-23T14:37:49;5.57;;;3.30;;
39128;SDS011;24864;49.940;19.770;2023-03-23T14:40:17;5.13;;;2.65;;
39128;SDS011;24864;49.940;19.770;2023-03-23T14:42:45;3.25;;;2.00;;
39128;SDS011;24864;49.940;19.770;2023-03-23T14:45:14;5.13;;;2.00;;
39128;SDS011;24864;49.940;19.770;2023-03-23T14:47:42;3.55;;;1.98;;
39128;SDS011;24864;49.940;19.770;2023-03-23T14:50:23;6.00;;;2.72;;
39128;SDS011;24864;49.940;19.770;2023-03-23T14:52:56;6.95;;;2.25;;
39128;SDS011;24864;49.940;19.770;2023-03-23T14:55:24;4.63;;;2.60;;
39128;SDS011;24864;49.940;19.770;2023-03-23T14:57:54;8.65;;;4.10;;
39128;SDS011;24864;49.940;19.770;2023-03-23T15:00:22;10.98;;;6.80;;
39128;SDS011;24864;49.940;19.770;2023-03-23T15:02:53;9.77;;;5.40;;
39128;SDS011;24864;49.940;19.770;2023-03-23T15:05:25;18.42;;;9.80;;
39128;SDS011;24864;49.940;19.770;2023-03-23T15:07:55;4.45;;;2.90;;
39128;SDS011;24864;49.940;19.770;2023-03-23T15:10:26;4.18;;;2.72;;
39128;SDS011;24864;49.940;19.770;2023-03-23T15:12:53;6.72;;;3.53;;
39128;SDS011;24864;49.940;19.770;2023-03-23T15:15:25;4.82;;;2.63;;